sensor_id;sensor_type;location;lat;lon;timestamp;temperature;humidity
17984;DHT22;9117;52.420;20.728;2022-12-18T00:01:57;-4.30;65.90
17984;DHT22;9117;52.420;20.728;2022-12-18T00:04:26;-4.40;1.00
17984;DHT22;9117;52.420;20.728;2022-12-18T00:06:55;-4.40;23.50
17984;DHT22;9117;52.420;20.728;2022-12-18T00:09:23;-4.50;1.00
17984;DHT22;9117;52.420;20.728;2022-12-18T00:12:05;-4.40;1.00
17984;DHT22;9117;52.420;20.728;2022-12-18T00:14:44;-4.50;1.00
17984;DHT22;9117;52.420;20.728;2022-12-18T00:17:14;-4.30;46.30
17984;DHT22;9117;52.420;20.728;2022-12-18T00:19:42;-4.40;99.90
17984;DHT22;9117;52.420;20.728;2022-12-18T00:22:10;-4.50;90.30
17984;DHT22;9117;52.420;20.728;2022-12-18T00:24:38;-4.40;1.00
17984;DHT22;9117;52.420;20.728;2022-12-18T00:27:06;-4.40;1.00
17984;DHT22;9117;52.420;20.728;2022-12-18T00:29:34;-4.40;99.90
17984;DHT22;9117;52.420;20.728;2022-12-18T00:32:02;-4.30;99.90
17984;DHT22;9117;52.420;20.728;2022-12-18T00:34:31;-4.30;63.90
17984;DHT22;9117;52.420;20.728;2022-12-18T00:36:59;-4.40;1.00
17984;DHT22;9117;52.420;20.728;2022-12-18T00:39:28;-4.30;8.90
17984;DHT22;9117;52.420;20.728;2022-12-18T00:41:56;-4.20;1.00
17984;DHT22;9117;52.420;20.728;2022-12-18T00:44:41;-4.30;99.90
17984;DHT22;9117;52.420;20.728;2022-12-18T00:47:09;-4.20;1.00
17984;DHT22;9117;52.420;20.728;2022-12-18T00:49:38;-4.30;73.60
17984;DHT22;9117;52.420;20.728;2022-12-18T00:52:06;-4.20;99.90
17984;DHT22;9117;52.420;20.728;2022-12-18T00:54:34;-4.20;99.90
17984;DHT22;9117;52.420;20.728;2022-12-18T00:57:03;-7.30;99.90
17984;DHT22;9117;52.420;20.728;2022-12-18T00:59:31;-4.30;99.90
17984;DHT22;9117;52.420;20.728;2022-12-18T01:01:59;-4.50;1.00
17984;DHT22;9117;52.420;20.728;2022-12-18T01:04:27;-4.40;1.00
17984;DHT22;9117;52.420;20.728;2022-12-18T01:06:56;-4.40;1.00
17984;DHT22;9117;52.420;20.728;2022-12-18T01:09:24;-4.40;1.00
17984;DHT22;9117;52.420;20.728;2022-12-18T01:11:52;-4.40;1.00
17984;DHT22;9117;52.420;20.728;2022-12-18T01:14:20;-5.70;1.00
17984;DHT22;9117;52.420;20.728;2022-12-18T01:16:49;-4.40;1.00
17984;DHT22;9117;52.420;20.728;2022-12-18T01:19:17;-4.30;1.00
17984;DHT22;9117;52.420;20.728;2022-12-18T01:21:45;-4.40;1.00
17984;DHT22;9117;52.420;20.728;2022-12-18T01:24:14;-4.40;1.00
17984;DHT22;9117;52.420;20.728;2022-12-18T01:26:42;-4.40;1.00
17984;DHT22;9117;52.420;20.728;2022-12-18T01:29:11;-4.50;1.00
17984;DHT22;9117;52.420;20.728;2022-12-18T01:31:39;-4.20;1.00
17984;DHT22;9117;52.420;20.728;2022-12-18T01:34:07;-4.30;1.00
17984;DHT22;9117;52.420;20.728;2022-12-18T01:36:36;-4.40;1.00
17984;DHT22;9117;52.420;20.728;2022-12-18T01:39:07;-4.30;1.00
17984;DHT22;9117;52.420;20.728;2022-12-18T01:41:38;-4.30;1.00
17984;DHT22;9117;52.420;20.728;2022-12-18T01:47:28;-4.30;1.00
17984;DHT22;9117;52.420;20.728;2022-12-18T01:49:59;-4.40;1.00
17984;DHT22;9117;52.420;20.728;2022-12-18T01:52:30;-4.50;38.50
17984;DHT22;9117;52.420;20.728;2022-12-18T01:54:59;-4.40;1.00
17984;DHT22;9117;52.420;20.728;2022-12-18T01:57:30;-4.30;99.90
17984;DHT22;9117;52.420;20.728;2022-12-18T02:00:01;-4.50;1.00
17984;DHT22;9117;52.420;20.728;2022-12-18T02:02:30;-4.30;1.00
17984;DHT22;9117;52.420;20.728;2022-12-18T02:04:59;-4.50;1.00
17984;DHT22;9117;52.420;20.728;2022-12-18T02:07:39;-4.50;1.00
17984;DHT22;9117;52.420;20.728;2022-12-18T02:10:13;-4.40;99.90
17984;DHT22;9117;52.420;20.728;2022-12-18T02:12:48;-4.60;1.00
17984;DHT22;9117;52.420;20.728;2022-12-18T02:15:24;-4.40;99.90
17984;DHT22;9117;52.420;20.728;2022-12-18T02:17:57;-4.50;99.90
17984;DHT22;9117;52.420;20.728;2022-12-18T02:20:32;-4.40;99.90
17984;DHT22;9117;52.420;20.728;2022-12-18T02:23:10;-4.60;1.00
17984;DHT22;9117;52.420;20.728;2022-12-18T02:26:05;-4.40;1.00
17984;DHT22;9117;52.420;20.728;2022-12-18T02:28:39;-4.40;1.00
17984;DHT22;9117;52.420;20.728;2022-12-18T02:31:11;-4.50;1.00
17984;DHT22;9117;52.420;20.728;2022-12-18T02:33:43;-4.60;1.00
17984;DHT22;9117;52.420;20.728;2022-12-18T02:36:13;-4.60;1.00
17984;DHT22;9117;52.420;20.728;2022-12-18T02:38:43;-4.60;1.00
17984;DHT22;9117;52.420;20.728;2022-12-18T02:41:14;-4.60;17.60
17984;DHT22;9117;52.420;20.728;2022-12-18T02:43:46;-4.50;99.90
17984;DHT22;9117;52.420;20.728;2022-12-18T02:46:29;-4.80;99.90
17984;DHT22;9117;52.420;20.728;2022-12-18T02:49:11;-4.70;48.70
17984;DHT22;9117;52.420;20.728;2022-12-18T02:51:47;-4.70;1.00
17984;DHT22;9117;52.420;20.728;2022-12-18T02:54:25;-4.80;1.00
17984;DHT22;9117;52.420;20.728;2022-12-18T02:57:06;-4.80;99.90
17984;DHT22;9117;52.420;20.728;2022-12-18T02:59:39;-4.70;1.00
17984;DHT22;9117;52.420;20.728;2022-12-18T03:02:17;-4.80;1.00
17984;DHT22;9117;52.420;20.728;2022-12-18T03:04:50;-4.10;1.00
17984;DHT22;9117;52.420;20.728;2022-12-18T03:07:23;-4.70;1.00
17984;DHT22;9117;52.420;20.728;2022-12-18T03:09:54;-4.80;99.90
17984;DHT22;9117;52.420;20.728;2022-12-18T03:12:29;-4.70;82.90
17984;DHT22;9117;52.420;20.728;2022-12-18T03:15:00;-4.90;1.00
17984;DHT22;9117;52.420;20.728;2022-12-18T03:17:31;-4.80;99.90
17984;DHT22;9117;52.420;20.728;2022-12-18T03:20:04;-4.70;1.00
17984;DHT22;9117;52.420;20.728;2022-12-18T03:22:35;-4.70;1.00
17984;DHT22;9117;52.420;20.728;2022-12-18T03:25:07;-4.90;1.00
17984;DHT22;9117;52.420;20.728;2022-12-18T03:27:43;-4.70;1.00
17984;DHT22;9117;52.420;20.728;2022-12-18T03:30:12;-4.90;15.00
17984;DHT22;9117;52.420;20.728;2022-12-18T03:32:44;-4.80;1.00
17984;DHT22;9117;52.420;20.728;2022-12-18T03:35:19;-4.90;99.90
17984;DHT22;9117;52.420;20.728;2022-12-18T03:37:49;-4.80;1.00
17984;DHT22;9117;52.420;20.728;2022-12-18T03:40:17;-4.80;99.90
17984;DHT22;9117;52.420;20.728;2022-12-18T03:42:49;-4.80;99.90
17984;DHT22;9117;52.420;20.728;2022-12-18T03:45:23;-4.90;1.00
17984;DHT22;9117;52.420;20.728;2022-12-18T03:47:59;-4.90;1.00
17984;DHT22;9117;52.420;20.728;2022-12-18T03:50:36;-4.90;1.00
17984;DHT22;9117;52.420;20.728;2022-12-18T03:53:17;-4.80;36.60
17984;DHT22;9117;52.420;20.728;2022-12-18T03:55:48;-4.80;99.90
17984;DHT22;9117;52.420;20.728;2022-12-18T03:58:20;-5.00;1.00
17984;DHT22;9117;52.420;20.728;2022-12-18T04:00:52;-4.90;1.00
17984;DHT22;9117;52.420;20.728;2022-12-18T04:03:23;-5.00;1.00
17984;DHT22;9117;52.420;20.728;2022-12-18T04:05:54;-4.80;1.00
17984;DHT22;9117;52.420;20.728;2022-12-18T04:08:24;-5.10;55.50
17984;DHT22;9117;52.420;20.728;2022-12-18T04:10:52;-5.00;1.00
17984;DHT22;9117;52.420;20.728;2022-12-18T04:13:28;-5.10;1.00
17984;DHT22;9117;52.420;20.728;2022-12-18T04:15:56;-5.10;1.00
17984;DHT22;9117;52.420;20.728;2022-12-18T04:18:24;-5.20;67.80
17984;DHT22;9117;52.420;20.728;2022-12-18T04:20:53;-5.20;1.00
17984;DHT22;9117;52.420;20.728;2022-12-18T04:23:21;-5.40;1.00
17984;DHT22;9117;52.420;20.728;2022-12-18T04:25:49;-5.40;33.60
17984;DHT22;9117;52.420;20.728;2022-12-18T04:28:17;-5.30;1.00
17984;DHT22;9117;52.420;20.728;2022-12-18T04:30:50;-5.40;1.00
17984;DHT22;9117;52.420;20.728;2022-12-18T04:33:18;-5.40;1.00
17984;DHT22;9117;52.420;20.728;2022-12-18T04:35:46;-5.50;1.00
17984;DHT22;9117;52.420;20.728;2022-12-18T04:38:14;-5.50;1.00
17984;DHT22;9117;52.420;20.728;2022-12-18T04:40:43;-5.60;1.00
17984;DHT22;9117;52.420;20.728;2022-12-18T04:43:11;-5.30;1.00
17984;DHT22;9117;52.420;20.728;2022-12-18T04:45:39;-5.60;1.00
17984;DHT22;9117;52.420;20.728;2022-12-18T04:48:08;-5.60;1.00
17984;DHT22;9117;52.420;20.728;2022-12-18T04:50:37;-5.50;1.00
17984;DHT22;9117;52.420;20.728;2022-12-18T04:53:06;-5.40;1.00
17984;DHT22;9117;52.420;20.728;2022-12-18T04:55:35;-4.10;99.90
17984;DHT22;9117;52.420;20.728;2022-12-18T04:58:04;-5.60;1.00
17984;DHT22;9117;52.420;20.728;2022-12-18T05:00:32;-5.60;1.00
17984;DHT22;9117;52.420;20.728;2022-12-18T05:03:00;-5.60;99.90
17984;DHT22;9117;52.420;20.728;2022-12-18T05:05:30;-5.50;99.90
17984;DHT22;9117;52.420;20.728;2022-12-18T05:07:59;-5.70;1.00
17984;DHT22;9117;52.420;20.728;2022-12-18T05:10:28;-5.60;99.90
17984;DHT22;9117;52.420;20.728;2022-12-18T05:13:03;-5.50;99.90
17984;DHT22;9117;52.420;20.728;2022-12-18T05:15:32;-5.50;99.90
17984;DHT22;9117;52.420;20.728;2022-12-18T05:18:01;-5.40;1.00
17984;DHT22;9117;52.420;20.728;2022-12-18T05:20:32;-5.60;1.00
17984;DHT22;9117;52.420;20.728;2022-12-18T05:23:00;-5.70;99.90
17984;DHT22;9117;52.420;20.728;2022-12-18T05:25:28;-5.60;99.90
17984;DHT22;9117;52.420;20.728;2022-12-18T05:27:56;-5.70;99.90
17984;DHT22;9117;52.420;20.728;2022-12-18T05:30:25;-5.50;1.00
17984;DHT22;9117;52.420;20.728;2022-12-18T05:32:54;-5.50;99.90
17984;DHT22;9117;52.420;20.728;2022-12-18T05:35:22;-5.40;1.00
17984;DHT22;9117;52.420;20.728;2022-12-18T05:37:51;-5.40;99.90
17984;DHT22;9117;52.420;20.728;2022-12-18T05:40:19;-5.40;1.00
17984;DHT22;9117;52.420;20.728;2022-12-18T05:42:47;-5.50;94.10
17984;DHT22;9117;52.420;20.728;2022-12-18T05:45:16;-5.40;99.90
17984;DHT22;9117;52.420;20.728;2022-12-18T05:47:44;-5.40;1.00
17984;DHT22;9117;52.420;20.728;2022-12-18T05:50:12;-5.40;99.90
17984;DHT22;9117;52.420;20.728;2022-12-18T05:52:40;-5.30;1.00
17984;DHT22;9117;52.420;20.728;2022-12-18T05:55:09;-5.40;14.50
17984;DHT22;9117;52.420;20.728;2022-12-18T05:57:37;-5.20;1.00
17984;DHT22;9117;52.420;20.728;2022-12-18T06:00:07;-5.30;1.00
17984;DHT22;9117;52.420;20.728;2022-12-18T06:02:35;-5.10;1.00
17984;DHT22;9117;52.420;20.728;2022-12-18T06:05:03;-5.30;1.00
17984;DHT22;9117;52.420;20.728;2022-12-18T06:07:32;-5.40;1.00
17984;DHT22;9117;52.420;20.728;2022-12-18T06:10:00;-5.30;1.00
17984;DHT22;9117;52.420;20.728;2022-12-18T06:12:29;-5.30;1.00
17984;DHT22;9117;52.420;20.728;2022-12-18T06:14:57;-5.20;1.00
17984;DHT22;9117;52.420;20.728;2022-12-18T06:17:28;-5.20;1.00
17984;DHT22;9117;52.420;20.728;2022-12-18T06:19:56;-5.40;1.00
17984;DHT22;9117;52.420;20.728;2022-12-18T06:22:25;-5.40;1.00
17984;DHT22;9117;52.420;20.728;2022-12-18T06:24:53;-5.40;1.00
17984;DHT22;9117;52.420;20.728;2022-12-18T06:27:21;-5.20;1.00
17984;DHT22;9117;52.420;20.728;2022-12-18T06:29:51;-5.40;1.00
17984;DHT22;9117;52.420;20.728;2022-12-18T06:32:19;-5.40;1.00
17984;DHT22;9117;52.420;20.728;2022-12-18T06:34:47;-5.30;1.00
17984;DHT22;9117;52.420;20.728;2022-12-18T06:37:15;-5.40;1.00
17984;DHT22;9117;52.420;20.728;2022-12-18T06:39:43;-5.40;1.00
17984;DHT22;9117;52.420;20.728;2022-12-18T06:42:11;-5.20;1.00
17984;DHT22;9117;52.420;20.728;2022-12-18T06:44:39;-5.30;1.00
17984;DHT22;9117;52.420;20.728;2022-12-18T06:47:08;-5.20;1.00
17984;DHT22;9117;52.420;20.728;2022-12-18T06:49:36;-5.40;1.00
17984;DHT22;9117;52.420;20.728;2022-12-18T06:52:04;-5.60;1.00
17984;DHT22;9117;52.420;20.728;2022-12-18T06:54:32;-5.40;1.00
17984;DHT22;9117;52.420;20.728;2022-12-18T06:57:00;-5.10;1.00
17984;DHT22;9117;52.420;20.728;2022-12-18T06:59:28;-5.40;1.00
17984;DHT22;9117;52.420;20.728;2022-12-18T07:01:56;-5.50;1.00
17984;DHT22;9117;52.420;20.728;2022-12-18T07:04:28;-5.40;1.00
17984;DHT22;9117;52.420;20.728;2022-12-18T07:06:57;-5.20;1.00
17984;DHT22;9117;52.420;20.728;2022-12-18T07:09:25;-5.10;1.00
17984;DHT22;9117;52.420;20.728;2022-12-18T07:11:55;-5.20;1.00
17984;DHT22;9117;52.420;20.728;2022-12-18T07:14:24;-5.30;1.00
17984;DHT22;9117;52.420;20.728;2022-12-18T07:16:52;-5.00;1.00
17984;DHT22;9117;52.420;20.728;2022-12-18T07:19:21;-5.20;1.00
17984;DHT22;9117;52.420;20.728;2022-12-18T07:21:51;-5.10;1.00
17984;DHT22;9117;52.420;20.728;2022-12-18T07:24:19;-5.00;1.00
17984;DHT22;9117;52.420;20.728;2022-12-18T07:26:47;-5.10;1.00
17984;DHT22;9117;52.420;20.728;2022-12-18T07:29:15;-5.10;1.00
17984;DHT22;9117;52.420;20.728;2022-12-18T07:31:43;-5.30;1.00
17984;DHT22;9117;52.420;20.728;2022-12-18T07:34:12;-4.90;1.00
17984;DHT22;9117;52.420;20.728;2022-12-18T07:36:40;-5.30;1.00
17984;DHT22;9117;52.420;20.728;2022-12-18T07:39:10;-5.40;1.00
17984;DHT22;9117;52.420;20.728;2022-12-18T07:41:39;-5.50;1.00
17984;DHT22;9117;52.420;20.728;2022-12-18T07:44:13;-5.60;1.00
17984;DHT22;9117;52.420;20.728;2022-12-18T07:46:41;-5.50;1.00
17984;DHT22;9117;52.420;20.728;2022-12-18T07:49:09;-5.50;1.00
17984;DHT22;9117;52.420;20.728;2022-12-18T07:51:37;-5.30;1.00
17984;DHT22;9117;52.420;20.728;2022-12-18T07:54:05;-5.40;1.00
17984;DHT22;9117;52.420;20.728;2022-12-18T07:56:34;-5.50;1.00
17984;DHT22;9117;52.420;20.728;2022-12-18T07:59:02;-5.50;1.00
17984;DHT22;9117;52.420;20.728;2022-12-18T08:01:31;-5.40;1.00
17984;DHT22;9117;52.420;20.728;2022-12-18T08:03:59;-5.20;91.90
17984;DHT22;9117;52.420;20.728;2022-12-18T08:06:27;-5.40;1.00
17984;DHT22;9117;52.420;20.728;2022-12-18T08:08:56;-5.40;13.50
17984;DHT22;9117;52.420;20.728;2022-12-18T08:11:25;-5.30;99.90
17984;DHT22;9117;52.420;20.728;2022-12-18T08:13:55;-5.20;67.20
17984;DHT22;9117;52.420;20.728;2022-12-18T08:16:26;-5.20;76.70
17984;DHT22;9117;52.420;20.728;2022-12-18T08:18:54;-5.30;99.90
17984;DHT22;9117;52.420;20.728;2022-12-18T08:21:24;-5.30;99.90
17984;DHT22;9117;52.420;20.728;2022-12-18T08:23:55;-5.50;1.00
17984;DHT22;9117;52.420;20.728;2022-12-18T08:26:24;-5.60;1.00
17984;DHT22;9117;52.420;20.728;2022-12-18T08:28:56;-5.30;1.00
17984;DHT22;9117;52.420;20.728;2022-12-18T08:31:25;-5.40;99.90
17984;DHT22;9117;52.420;20.728;2022-12-18T08:33:54;-5.30;56.60
17984;DHT22;9117;52.420;20.728;2022-12-18T08:36:23;-5.20;1.20
17984;DHT22;9117;52.420;20.728;2022-12-18T08:38:52;-5.10;99.90
17984;DHT22;9117;52.420;20.728;2022-12-18T08:41:21;-5.20;83.50
17984;DHT22;9117;52.420;20.728;2022-12-18T08:43:49;-5.10;1.00
17984;DHT22;9117;52.420;20.728;2022-12-18T08:46:38;-5.70;24.30
17984;DHT22;9117;52.420;20.728;2022-12-18T08:49:07;-4.80;1.00
17984;DHT22;9117;52.420;20.728;2022-12-18T08:51:35;-4.90;98.00
17984;DHT22;9117;52.420;20.728;2022-12-18T08:54:04;-4.70;99.90
17984;DHT22;9117;52.420;20.728;2022-12-18T08:56:32;-4.90;99.90
17984;DHT22;9117;52.420;20.728;2022-12-18T08:59:01;-4.70;1.00
17984;DHT22;9117;52.420;20.728;2022-12-18T09:03:59;-5.10;99.90
17984;DHT22;9117;52.420;20.728;2022-12-18T09:06:27;-4.90;99.90
17984;DHT22;9117;52.420;20.728;2022-12-18T09:08:55;-5.10;1.00
17984;DHT22;9117;52.420;20.728;2022-12-18T09:11:27;-4.90;1.00
17984;DHT22;9117;52.420;20.728;2022-12-18T09:16:26;-4.70;1.00
17984;DHT22;9117;52.420;20.728;2022-12-18T09:19:00;-4.70;1.00
17984;DHT22;9117;52.420;20.728;2022-12-18T09:21:30;-4.70;99.90
17984;DHT22;9117;52.420;20.728;2022-12-18T09:24:03;-4.70;1.00
17984;DHT22;9117;52.420;20.728;2022-12-18T09:26:34;-4.70;99.90
17984;DHT22;9117;52.420;20.728;2022-12-18T09:29:03;-4.80;1.00
17984;DHT22;9117;52.420;20.728;2022-12-18T09:31:31;-4.80;70.00
17984;DHT22;9117;52.420;20.728;2022-12-18T09:34:00;-4.40;9.60
17984;DHT22;9117;52.420;20.728;2022-12-18T09:36:28;-4.60;1.00
17984;DHT22;9117;52.420;20.728;2022-12-18T09:38:56;-4.50;99.90
17984;DHT22;9117;52.420;20.728;2022-12-18T09:41:41;-4.70;15.90
17984;DHT22;9117;52.420;20.728;2022-12-18T09:44:16;-4.40;94.80
17984;DHT22;9117;52.420;20.728;2022-12-18T09:46:48;-4.50;1.00
17984;DHT22;9117;52.420;20.728;2022-12-18T09:49:23;-4.30;1.00
17984;DHT22;9117;52.420;20.728;2022-12-18T09:51:55;-4.30;1.00
17984;DHT22;9117;52.420;20.728;2022-12-18T09:54:29;-4.40;63.90
17984;DHT22;9117;52.420;20.728;2022-12-18T09:56:59;-4.30;1.00
17984;DHT22;9117;52.420;20.728;2022-12-18T09:59:38;-4.20;99.90
17984;DHT22;9117;52.420;20.728;2022-12-18T10:02:18;-4.20;1.00
17984;DHT22;9117;52.420;20.728;2022-12-18T10:05:05;-4.40;1.00
17984;DHT22;9117;52.420;20.728;2022-12-18T10:07:45;-4.30;1.00
17984;DHT22;9117;52.420;20.728;2022-12-18T10:10:26;-4.10;1.00
17984;DHT22;9117;52.420;20.728;2022-12-18T10:13:01;-4.00;1.00
17984;DHT22;9117;52.420;20.728;2022-12-18T10:15:36;-4.20;1.00
17984;DHT22;9117;52.420;20.728;2022-12-18T10:18:19;-4.00;28.10
17984;DHT22;9117;52.420;20.728;2022-12-18T10:20:55;-3.80;1.00
17984;DHT22;9117;52.420;20.728;2022-12-18T10:23:28;-3.80;99.90
17984;DHT22;9117;52.420;20.728;2022-12-18T10:26:03;-3.90;99.90
17984;DHT22;9117;52.420;20.728;2022-12-18T10:28:33;-3.90;99.90
17984;DHT22;9117;52.420;20.728;2022-12-18T10:31:01;-3.80;90.40
17984;DHT22;9117;52.420;20.728;2022-12-18T10:33:31;-3.70;1.00
17984;DHT22;9117;52.420;20.728;2022-12-18T10:36:01;-3.60;99.90
17984;DHT22;9117;52.420;20.728;2022-12-18T10:38:31;-3.40;96.20
17984;DHT22;9117;52.420;20.728;2022-12-18T10:41:01;-3.50;97.80
17984;DHT22;9117;52.420;20.728;2022-12-18T10:43:31;-3.50;1.00
17984;DHT22;9117;52.420;20.728;2022-12-18T10:46:12;-3.40;99.90
17984;DHT22;9117;52.420;20.728;2022-12-18T10:48:53;-3.50;99.90
17984;DHT22;9117;52.420;20.728;2022-12-18T10:51:28;-4.40;99.90
17984;DHT22;9117;52.420;20.728;2022-12-18T10:53:59;-3.30;99.90
17984;DHT22;9117;52.420;20.728;2022-12-18T10:56:30;-3.30;99.90
17984;DHT22;9117;52.420;20.728;2022-12-18T10:59:01;-3.60;1.00
17984;DHT22;9117;52.420;20.728;2022-12-18T11:01:46;-3.50;1.00
17984;DHT22;9117;52.420;20.728;2022-12-18T11:04:18;-3.50;1.00
17984;DHT22;9117;52.420;20.728;2022-12-18T11:06:56;-3.30;66.20
17984;DHT22;9117;52.420;20.728;2022-12-18T11:09:26;-3.20;1.00
17984;DHT22;9117;52.420;20.728;2022-12-18T11:11:56;-3.00;1.00
17984;DHT22;9117;52.420;20.728;2022-12-18T11:14:27;-3.10;1.00
17984;DHT22;9117;52.420;20.728;2022-12-18T11:16:56;-3.20;1.00
17984;DHT22;9117;52.420;20.728;2022-12-18T11:19:52;-2.80;99.90
17984;DHT22;9117;52.420;20.728;2022-12-18T11:22:24;-2.90;99.90
17984;DHT22;9117;52.420;20.728;2022-12-18T11:24:57;-3.10;99.90
17984;DHT22;9117;52.420;20.728;2022-12-18T11:27:52;-3.10;99.90
17984;DHT22;9117;52.420;20.728;2022-12-18T11:30:25;-3.10;1.90
17984;DHT22;9117;52.420;20.728;2022-12-18T11:32:56;-3.30;1.00
17984;DHT22;9117;52.420;20.728;2022-12-18T11:35:38;-3.10;99.90
17984;DHT22;9117;52.420;20.728;2022-12-18T11:38:17;-3.10;99.90
17984;DHT22;9117;52.420;20.728;2022-12-18T11:40:51;-3.10;1.00
17984;DHT22;9117;52.420;20.728;2022-12-18T11:43:25;-3.10;99.90
17984;DHT22;9117;52.420;20.728;2022-12-18T11:45:59;-3.10;99.90
17984;DHT22;9117;52.420;20.728;2022-12-18T11:48:32;-3.10;1.00
17984;DHT22;9117;52.420;20.728;2022-12-18T11:51:03;-3.00;97.20
17984;DHT22;9117;52.420;20.728;2022-12-18T11:53:34;-2.70;99.90
17984;DHT22;9117;52.420;20.728;2022-12-18T11:56:19;-2.70;1.00
17984;DHT22;9117;52.420;20.728;2022-12-18T11:59:00;-2.90;99.90
17984;DHT22;9117;52.420;20.728;2022-12-18T12:01:39;-2.90;99.90
17984;DHT22;9117;52.420;20.728;2022-12-18T12:04:36;-3.00;1.00
17984;DHT22;9117;52.420;20.728;2022-12-18T12:07:23;-2.90;1.00
17984;DHT22;9117;52.420;20.728;2022-12-18T12:10:00;-3.00;99.90
17984;DHT22;9117;52.420;20.728;2022-12-18T12:12:39;-2.80;99.90
17984;DHT22;9117;52.420;20.728;2022-12-18T12:15:26;-2.90;1.00
17984;DHT22;9117;52.420;20.728;2022-12-18T12:18:04;-3.00;92.50
17984;DHT22;9117;52.420;20.728;2022-12-18T12:20:47;-3.00;99.90
17984;DHT22;9117;52.420;20.728;2022-12-18T12:23:24;-2.90;1.00
17984;DHT22;9117;52.420;20.728;2022-12-18T12:26:01;-3.00;99.90
17984;DHT22;9117;52.420;20.728;2022-12-18T12:29:06;-3.00;1.00
17984;DHT22;9117;52.420;20.728;2022-12-18T12:31:59;-3.00;1.00
17984;DHT22;9117;52.420;20.728;2022-12-18T12:34:38;-3.00;99.90
17984;DHT22;9117;52.420;20.728;2022-12-18T12:37:22;-3.00;99.90
17984;DHT22;9117;52.420;20.728;2022-12-18T12:39:53;-2.90;26.60
17984;DHT22;9117;52.420;20.728;2022-12-18T12:42:30;-3.00;1.00
17984;DHT22;9117;52.420;20.728;2022-12-18T12:45:20;-3.00;99.90
17984;DHT22;9117;52.420;20.728;2022-12-18T12:47:50;-3.10;99.90
17984;DHT22;9117;52.420;20.728;2022-12-18T12:50:20;-3.10;1.00
17984;DHT22;9117;52.420;20.728;2022-12-18T12:52:52;-2.80;1.00
17984;DHT22;9117;52.420;20.728;2022-12-18T12:55:22;-3.00;99.90
17984;DHT22;9117;52.420;20.728;2022-12-18T12:57:59;-2.90;99.90
17984;DHT22;9117;52.420;20.728;2022-12-18T13:00:36;-3.20;99.90
17984;DHT22;9117;52.420;20.728;2022-12-18T13:03:13;-3.20;99.90
17984;DHT22;9117;52.420;20.728;2022-12-18T13:05:48;-3.10;1.00
17984;DHT22;9117;52.420;20.728;2022-12-18T13:08:24;-3.10;99.90
17984;DHT22;9117;52.420;20.728;2022-12-18T13:10:53;-3.30;1.00
17984;DHT22;9117;52.420;20.728;2022-12-18T13:13:50;-3.30;1.00
17984;DHT22;9117;52.420;20.728;2022-12-18T13:16:19;-3.10;99.90
17984;DHT22;9117;52.420;20.728;2022-12-18T13:18:49;-1.40;1.00
17984;DHT22;9117;52.420;20.728;2022-12-18T13:21:23;-3.30;19.70
17984;DHT22;9117;52.420;20.728;2022-12-18T13:23:54;-3.40;1.00
17984;DHT22;9117;52.420;20.728;2022-12-18T13:26:32;-3.40;1.00
17984;DHT22;9117;52.420;20.728;2022-12-18T13:29:03;-2.70;1.00
17984;DHT22;9117;52.420;20.728;2022-12-18T13:34:29;-3.60;1.00
17984;DHT22;9117;52.420;20.728;2022-12-18T13:40:00;-3.60;99.90
17984;DHT22;9117;52.420;20.728;2022-12-18T13:42:39;-3.70;99.90
17984;DHT22;9117;52.420;20.728;2022-12-18T13:45:42;-3.80;99.90
17984;DHT22;9117;52.420;20.728;2022-12-18T13:48:24;-3.80;99.90
17984;DHT22;9117;52.420;20.728;2022-12-18T13:50:56;-3.70;99.90
17984;DHT22;9117;52.420;20.728;2022-12-18T13:53:28;-3.80;99.90
17984;DHT22;9117;52.420;20.728;2022-12-18T13:55:57;-3.70;95.70
17984;DHT22;9117;52.420;20.728;2022-12-18T13:58:26;-3.70;99.90
17984;DHT22;9117;52.420;20.728;2022-12-18T14:00:55;-5.20;75.70
17984;DHT22;9117;52.420;20.728;2022-12-18T14:03:28;-4.10;1.00
17984;DHT22;9117;52.420;20.728;2022-12-18T14:06:00;-3.80;1.00
17984;DHT22;9117;52.420;20.728;2022-12-18T14:08:34;-3.80;1.00
17984;DHT22;9117;52.420;20.728;2022-12-18T14:11:04;-3.80;1.00
17984;DHT22;9117;52.420;20.728;2022-12-18T14:13:37;-3.80;99.90
17984;DHT22;9117;52.420;20.728;2022-12-18T14:16:14;-4.00;99.90
17984;DHT22;9117;52.420;20.728;2022-12-18T14:18:45;-4.10;1.00
17984;DHT22;9117;52.420;20.728;2022-12-18T14:21:18;-4.20;33.70
17984;DHT22;9117;52.420;20.728;2022-12-18T14:23:47;-4.20;42.00
17984;DHT22;9117;52.420;20.728;2022-12-18T14:26:24;-4.20;1.00
17984;DHT22;9117;52.420;20.728;2022-12-18T14:28:55;-4.20;1.00
17984;DHT22;9117;52.420;20.728;2022-12-18T14:31:27;-3.10;99.90
17984;DHT22;9117;52.420;20.728;2022-12-18T14:33:56;-4.10;99.90
17984;DHT22;9117;52.420;20.728;2022-12-18T14:36:25;-4.00;99.90
17984;DHT22;9117;52.420;20.728;2022-12-18T14:38:55;-4.20;99.90
17984;DHT22;9117;52.420;20.728;2022-12-18T14:41:25;-4.40;99.90
17984;DHT22;9117;52.420;20.728;2022-12-18T14:43:56;-4.40;1.00
17984;DHT22;9117;52.420;20.728;2022-12-18T14:46:35;-4.70;99.90
17984;DHT22;9117;52.420;20.728;2022-12-18T14:49:16;-4.40;99.90
17984;DHT22;9117;52.420;20.728;2022-12-18T14:51:47;-4.50;1.00
17984;DHT22;9117;52.420;20.728;2022-12-18T14:54:17;-4.30;99.90
17984;DHT22;9117;52.420;20.728;2022-12-18T14:56:47;-4.70;99.90
17984;DHT22;9117;52.420;20.728;2022-12-18T14:59:19;-4.50;1.00
17984;DHT22;9117;52.420;20.728;2022-12-18T15:02:00;-4.70;1.00
17984;DHT22;9117;52.420;20.728;2022-12-18T15:04:33;-4.70;99.90
17984;DHT22;9117;52.420;20.728;2022-12-18T15:07:11;-4.80;99.90
17984;DHT22;9117;52.420;20.728;2022-12-18T15:09:42;-4.00;99.90
17984;DHT22;9117;52.420;20.728;2022-12-18T15:12:25;-4.80;99.90
17984;DHT22;9117;52.420;20.728;2022-12-18T15:14:53;-4.70;1.00
17984;DHT22;9117;52.420;20.728;2022-12-18T15:17:23;-4.70;99.90
17984;DHT22;9117;52.420;20.728;2022-12-18T15:19:58;-4.60;99.90
17984;DHT22;9117;52.420;20.728;2022-12-18T15:22:28;-4.60;99.90
17984;DHT22;9117;52.420;20.728;2022-12-18T15:24:58;-5.20;99.90
17984;DHT22;9117;52.420;20.728;2022-12-18T15:27:29;-4.60;99.90
17984;DHT22;9117;52.420;20.728;2022-12-18T15:30:21;-4.80;99.90
17984;DHT22;9117;52.420;20.728;2022-12-18T15:32:55;-5.10;99.90
17984;DHT22;9117;52.420;20.728;2022-12-18T15:35:40;-5.00;99.90
17984;DHT22;9117;52.420;20.728;2022-12-18T15:40:41;-4.20;1.00
17984;DHT22;9117;52.420;20.728;2022-12-18T15:43:09;-4.10;1.00
17984;DHT22;9117;52.420;20.728;2022-12-18T15:45:55;-5.30;99.90
17984;DHT22;9117;52.420;20.728;2022-12-18T15:48:24;-5.20;1.00
17984;DHT22;9117;52.420;20.728;2022-12-18T15:50:54;-5.10;1.00
17984;DHT22;9117;52.420;20.728;2022-12-18T15:53:24;-5.00;99.90
17984;DHT22;9117;52.420;20.728;2022-12-18T15:55:53;-5.30;76.60
17984;DHT22;9117;52.420;20.728;2022-12-18T15:58:38;-5.00;50.90
17984;DHT22;9117;52.420;20.728;2022-12-18T16:01:08;-5.20;99.90
17984;DHT22;9117;52.420;20.728;2022-12-18T16:03:38;-5.30;1.00
17984;DHT22;9117;52.420;20.728;2022-12-18T16:06:08;-5.30;99.90
17984;DHT22;9117;52.420;20.728;2022-12-18T16:08:36;-5.00;1.00
17984;DHT22;9117;52.420;20.728;2022-12-18T16:11:20;-5.20;1.00
17984;DHT22;9117;52.420;20.728;2022-12-18T16:14:06;-5.40;94.50
17984;DHT22;9117;52.420;20.728;2022-12-18T16:19:07;-5.90;1.00
17984;DHT22;9117;52.420;20.728;2022-12-18T16:21:35;-5.20;99.90
17984;DHT22;9117;52.420;20.728;2022-12-18T16:24:03;-5.10;1.00
17984;DHT22;9117;52.420;20.728;2022-12-18T16:26:31;-5.10;1.00
17984;DHT22;9117;52.420;20.728;2022-12-18T16:28:59;-5.20;1.00
17984;DHT22;9117;52.420;20.728;2022-12-18T16:31:27;-5.20;1.00